Time;durP1;ratioP1;P1;durP2;ratioP2;P2;SDS_P1;SDS_P2;PMS_P1;PMS_P2;Temp;Humidity;BMP_temperature;BMP_pressure;BME280_temperature;BME280_humidity;BME280_pressure;Samples;Min_cycle;Max_cycle;Signal;HPM_P1;HPM_P2
2022/04/23 00:01:42;;;;;;;6.28;3.42;;;;;;;;;;4998302;28;20565;-69
2022/04/23 00:04:09;;;;;;;4.38;3.22;;;;;;;;;;5016941;28;20052;-69
2022/04/23 00:06:35;;;;;;;5.88;3.42;;;;;;;;;;5016656;28;20550;-69
2022/04/23 00:09:01;;;;;;;5.03;3.22;;;;;;;;;;4998235;28;20046;-70
2022/04/23 00:11:27;;;;;;;4.90;3.25;;;;;;;;;;5016027;28;20045;-69
2022/04/23 00:13:55;;;;;;;4.78;3.20;;;;;;;;;;5016388;28;20503;-69
2022/04/23 00:16:22;;;;;;;5.30;3.55;;;;;;;;;;5016701;28;20049;-69
2022/04/23 00:18:48;;;;;;;5.13;3.10;;;;;;;;;;5016518;28;20112;-69
2022/04/23 00:21:14;;;;;;;4.93;3.30;;;;;;;;;;5017781;28;20053;-68
2022/04/23 00:23:40;;;;;;;4.88;3.30;;;;;;;;;;5018263;28;20041;-69
2022/04/23 00:26:06;;;;;;;4.95;3.28;;;;;;;;;;5015850;28;20489;-69
2022/04/23 00:28:33;;;;;;;5.03;3.30;;;;;;;;;;5016244;28;20061;-69
2022/04/23 00:30:59;;;;;;;5.00;3.42;;;;;;;;;;5015864;28;20045;-69
2022/04/23 00:33:25;;;;;;;5.35;3.15;;;;;;;;;;5016108;28;20049;-69
2022/04/23 00:35:51;;;;;;;4.43;3.30;;;;;;;;;;5016346;28;20066;-69
2022/04/23 00:38:17;;;;;;;6.10;3.50;;;;;;;;;;5015938;28;20124;-69
2022/04/23 00:40:44;;;;;;;4.25;3.15;;;;;;;;;;5015319;28;20046;-69
2022/04/23 00:43:45;;;;;;;5.13;3.35;;;;;;;;;;5007553;28;20045;-69
2022/04/23 00:46:11;;;;;;;6.55;3.83;;;;;;;;;;4955701;28;20054;-69
2022/04/23 00:48:37;;;;;;;5.05;3.10;;;;;;;;;;4955781;29;20051;-69
2022/04/23 00:51:03;;;;;;;4.70;3.25;;;;;;;;;;4961399;28;20125;-69
2022/04/23 00:53:29;;;;;;;5.20;3.58;;;;;;;;;;4974311;28;20455;-69
2022/04/23 00:55:56;;;;;;;4.75;3.50;;;;;;;;;;4974601;28;20134;-69
2022/04/23 00:58:23;;;;;;;4.28;3.40;;;;;;;;;;4974572;28;20094;-69
2022/04/23 01:00:49;;;;;;;4.82;3.33;;;;;;;;;;4957866;28;20183;-69
2022/04/23 01:03:15;;;;;;;5.47;3.55;;;;;;;;;;4974297;28;20495;-69
2022/04/23 01:05:44;;;;;;;5.03;3.35;;;;;;;;;;4974565;28;20092;-69
2022/04/23 01:08:12;;;;;;;4.53;2.97;;;;;;;;;;4973895;28;20054;-69
2022/04/23 01:10:38;;;;;;;4.75;3.45;;;;;;;;;;4973104;28;20051;-69
2022/04/23 01:13:04;;;;;;;4.82;3.30;;;;;;;;;;4974270;28;20503;-69
2022/04/23 01:15:30;;;;;;;4.68;3.28;;;;;;;;;;4974286;28;20053;-69
2022/04/23 01:17:56;;;;;;;4.10;3.20;;;;;;;;;;4974131;28;20051;-69
2022/04/23 01:20:24;;;;;;;3.55;2.90;;;;;;;;;;4998667;28;20077;-69
2022/04/23 01:22:50;;;;;;;4.35;3.20;;;;;;;;;;5014246;28;20052;-69
2022/04/23 01:25:16;;;;;;;4.03;3.13;;;;;;;;;;5015408;28;20042;-69
2022/04/23 01:27:45;;;;;;;4.82;3.33;;;;;;;;;;5015262;28;20050;-69
2022/04/23 01:30:11;;;;;;;4.43;3.50;;;;;;;;;;5014906;28;20046;-69
2022/04/23 01:32:37;;;;;;;3.72;3.10;;;;;;;;;;5014556;28;20046;-69
2022/04/23 01:35:04;;;;;;;4.45;3.17;;;;;;;;;;5014875;28;20038;-69
2022/04/23 01:37:30;;;;;;;4.50;3.10;;;;;;;;;;5014905;28;20157;-69
2022/04/23 01:39:56;;;;;;;5.15;3.25;;;;;;;;;;5013908;28;20493;-69
2022/04/23 01:42:22;;;;;;;6.18;3.30;;;;;;;;;;5014437;28;20056;-69
2022/04/23 01:44:49;;;;;;;4.40;2.95;;;;;;;;;;5004647;28;20056;-69
2022/04/23 01:47:15;;;;;;;4.05;3.10;;;;;;;;;;5014520;28;20108;-69
2022/04/23 01:49:41;;;;;;;3.92;2.90;;;;;;;;;;5014811;28;20042;-70
2022/04/23 01:52:08;;;;;;;4.57;3.20;;;;;;;;;;5014900;28;20042;-69
2022/04/23 01:54:34;;;;;;;5.22;3.42;;;;;;;;;;5013764;28;20218;-69
2022/04/23 01:57:01;;;;;;;3.80;2.97;;;;;;;;;;5014708;28;20046;-70
2022/04/23 01:59:27;;;;;;;4.75;3.40;;;;;;;;;;5014735;28;20068;-69
2022/04/23 02:01:53;;;;;;;4.15;3.13;;;;;;;;;;5014315;28;20042;-70
2022/04/23 02:04:19;;;;;;;4.35;3.15;;;;;;;;;;5013666;28;20173;-69
2022/04/23 02:06:45;;;;;;;3.75;3.00;;;;;;;;;;5013724;28;20404;-69
2022/04/23 02:09:12;;;;;;;4.22;2.97;;;;;;;;;;5014102;28;20553;-69
2022/04/23 02:11:38;;;;;;;4.45;3.30;;;;;;;;;;5014620;28;20038;-69
2022/04/23 02:14:04;;;;;;;3.72;3.00;;;;;;;;;;5013263;28;20120;-70
2022/04/23 02:16:30;;;;;;;4.18;3.40;;;;;;;;;;5014443;28;20050;-69
2022/04/23 02:19:01;;;;;;;3.60;3.03;;;;;;;;;;5014485;28;20129;-69
2022/04/23 02:21:27;;;;;;;4.43;3.30;;;;;;;;;;5014523;28;20041;-70
2022/04/23 02:23:53;;;;;;;4.25;3.17;;;;;;;;;;5013455;28;20133;-69
2022/04/23 02:26:20;;;;;;;4.30;3.33;;;;;;;;;;5014212;28;20116;-69
2022/04/23 02:28:52;;;;;;;3.78;3.10;;;;;;;;;;5013862;28;20034;-70
2022/04/23 02:31:18;;;;;;;4.22;3.17;;;;;;;;;;4998540;28;20493;-70
2022/04/23 02:33:44;;;;;;;3.92;3.00;;;;;;;;;;5013602;28;20045;-70
2022/04/23 02:36:11;;;;;;;3.70;2.95;;;;;;;;;;5014180;28;20042;-69
2022/04/23 02:38:40;;;;;;;3.70;3.33;;;;;;;;;;4996069;28;20050;-70
2022/04/23 02:41:06;;;;;;;4.88;3.17;;;;;;;;;;5013603;28;20516;-69
2022/04/23 02:43:35;;;;;;;4.03;3.13;;;;;;;;;;5013046;28;20378;-70
2022/04/23 02:46:01;;;;;;;3.60;3.15;;;;;;;;;;5013128;28;20160;-69
2022/04/23 02:48:28;;;;;;;4.45;3.28;;;;;;;;;;5013576;28;20053;-69
2022/04/23 02:50:54;;;;;;;4.32;3.20;;;;;;;;;;5012720;28;20049;-69
2022/04/23 02:53:21;;;;;;;4.30;3.25;;;;;;;;;;5012317;28;20042;-69
2022/04/23 02:55:47;;;;;;;4.10;3.28;;;;;;;;;;5013308;28;20497;-70
2022/04/23 02:58:13;;;;;;;4.63;3.17;;;;;;;;;;4995946;28;20069;-70
2022/04/23 03:00:40;;;;;;;4.25;3.20;;;;;;;;;;5009599;28;20049;-70
2022/04/23 03:03:08;;;;;;;4.25;3.33;;;;;;;;;;4994158;28;20073;-70
2022/04/23 03:05:34;;;;;;;3.67;3.05;;;;;;;;;;5013194;28;20056;-70
2022/04/23 03:08:00;;;;;;;3.33;2.80;;;;;;;;;;4995805;28;20050;-69
2022/04/23 03:10:27;;;;;;;4.75;3.50;;;;;;;;;;5013433;28;20042;-70
2022/04/23 03:12:55;;;;;;;3.53;2.90;;;;;;;;;;5013139;28;20111;-69
2022/04/23 03:15:22;;;;;;;3.88;3.13;;;;;;;;;;5013042;28;20052;-69
2022/04/23 03:17:48;;;;;;;4.22;3.40;;;;;;;;;;5013557;28;20405;-70
2022/04/23 03:20:15;;;;;;;4.05;3.08;;;;;;;;;;5013792;28;20045;-69
2022/04/23 03:22:41;;;;;;;3.97;3.10;;;;;;;;;;5013150;28;20080;-69
2022/04/23 03:25:08;;;;;;;3.75;3.25;;;;;;;;;;5012012;28;20046;-70
2022/04/23 03:27:35;;;;;;;4.53;3.47;;;;;;;;;;5011893;28;20121;-69
2022/04/23 03:30:01;;;;;;;3.55;3.25;;;;;;;;;;5012982;28;20092;-69
2022/04/23 03:32:27;;;;;;;4.93;3.30;;;;;;;;;;5013286;28;20042;-70
2022/04/23 03:34:53;;;;;;;4.72;3.33;;;;;;;;;;5006834;28;20056;-69
2022/04/23 03:37:19;;;;;;;3.47;2.90;;;;;;;;;;5013182;28;20057;-70
2022/04/23 03:39:46;;;;;;;4.15;3.22;;;;;;;;;;5013438;28;20049;-70
2022/04/23 03:42:12;;;;;;;3.70;3.30;;;;;;;;;;5012925;28;20057;-70
2022/04/23 03:44:38;;;;;;;3.90;3.50;;;;;;;;;;5012191;28;20100;-70
2022/04/23 03:47:05;;;;;;;3.45;3.13;;;;;;;;;;4995272;28;20069;-70
2022/04/23 03:49:31;;;;;;;3.75;3.03;;;;;;;;;;5012908;28;20484;-69
2022/04/23 03:51:57;;;;;;;4.07;3.22;;;;;;;;;;5013211;28;20038;-69
2022/04/23 03:54:24;;;;;;;4.40;3.20;;;;;;;;;;5012066;28;20046;-70
2022/04/23 03:56:50;;;;;;;4.50;3.25;;;;;;;;;;5012824;28;20042;-70
2022/04/23 03:59:20;;;;;;;4.15;3.20;;;;;;;;;;5012773;28;20145;-70
2022/04/23 04:01:47;;;;;;;4.50;3.30;;;;;;;;;;5012455;28;20038;-70
2022/04/23 04:04:14;;;;;;;3.88;3.03;;;;;;;;;;5010516;28;20459;-69
2022/04/23 04:06:40;;;;;;;3.53;3.05;;;;;;;;;;5013125;28;20042;-70
2022/04/23 04:09:06;;;;;;;4.35;3.28;;;;;;;;;;5012649;28;20046;-70
2022/04/23 04:12:01;;;;;;;3.83;3.20;;;;;;;;;;5013022;28;20046;-70
2022/04/23 04:14:19;;;;;;;4.25;3.10;;;;;;;;;;5012506;28;20046;-69
2022/04/23 04:16:49;;;;;;;3.88;3.13;;;;;;;;;;5013016;28;20068;-70
2022/04/23 04:19:15;;;;;;;3.53;3.20;;;;;;;;;;4995181;28;20065;-69
2022/04/23 04:21:44;;;;;;;3.60;3.13;;;;;;;;;;5012684;28;20122;-70
2022/04/23 04:24:12;;;;;;;3.83;3.40;;;;;;;;;;5012270;28;20054;-70
2022/04/23 04:26:40;;;;;;;3.90;3.25;;;;;;;;;;5012655;28;20524;-70
2022/04/23 04:29:06;;;;;;;4.10;3.60;;;;;;;;;;5011730;28;20038;-69
2022/04/23 04:31:47;;;;;;;3.72;3.30;;;;;;;;;;5012865;28;20101;-70
2022/04/23 04:34:13;;;;;;;3.58;2.95;;;;;;;;;;5012434;28;20102;-70
2022/04/23 04:36:40;;;;;;;4.28;3.35;;;;;;;;;;5013253;28;20056;-69
2022/04/23 04:39:06;;;;;;;3.88;3.20;;;;;;;;;;5015771;28;20042;-70
2022/04/23 04:41:32;;;;;;;3.75;3.28;;;;;;;;;;5016082;28;20141;-70
2022/04/23 04:43:58;;;;;;;3.42;3.13;;;;;;;;;;4997637;28;20471;-70
2022/04/23 04:46:24;;;;;;;3.97;2.95;;;;;;;;;;4998093;28;20080;-70
2022/04/23 04:48:52;;;;;;;4.95;3.70;;;;;;;;;;5016007;28;20077;-70
2022/04/23 04:51:18;;;;;;;3.30;3.00;;;;;;;;;;5015722;28;20046;-70
2022/04/23 04:53:44;;;;;;;3.45;3.15;;;;;;;;;;5015374;28;20045;-70
2022/04/23 04:56:10;;;;;;;4.30;3.30;;;;;;;;;;5015793;28;20048;-70
2022/04/23 04:58:36;;;;;;;3.78;3.17;;;;;;;;;;5015367;28;20444;-69
2022/04/23 05:01:03;;;;;;;3.85;3.38;;;;;;;;;;5015929;28;20046;-70
2022/04/23 05:03:29;;;;;;;4.90;3.20;;;;;;;;;;5014806;28;20489;-70
2022/04/23 05:05:55;;;;;;;4.32;3.00;;;;;;;;;;5015665;28;20125;-70
2022/04/23 05:08:21;;;;;;;3.67;3.30;;;;;;;;;;5015771;28;20124;-70
2022/04/23 05:10:47;;;;;;;3.78;3.17;;;;;;;;;;5014953;28;20096;-69
2022/04/23 05:13:13;;;;;;;4.50;3.65;;;;;;;;;;5014314;28;20554;-69
2022/04/23 05:15:39;;;;;;;3.83;3.33;;;;;;;;;;5015356;28;20529;-70
2022/04/23 05:18:06;;;;;;;3.88;3.28;;;;;;;;;;4997683;28;20045;-69
2022/04/23 05:20:32;;;;;;;4.10;3.70;;;;;;;;;;5015517;28;20041;-70
2022/04/23 05:22:58;;;;;;;4.28;3.70;;;;;;;;;;5014707;28;20045;-71
2022/04/23 05:25:24;;;;;;;3.92;3.53;;;;;;;;;;5015088;28;20501;-69
2022/04/23 05:27:50;;;;;;;4.85;4.35;;;;;;;;;;5014903;28;20042;-69
2022/04/23 05:30:16;;;;;;;5.15;4.65;;;;;;;;;;5015314;28;20120;-68
2022/04/23 05:32:42;;;;;;;5.75;4.72;;;;;;;;;;5014132;28;20041;-68
2022/04/23 05:35:08;;;;;;;4.80;3.97;;;;;;;;;;5026834;28;20503;-69
2022/04/23 05:37:35;;;;;;;5.00;4.55;;;;;;;;;;5035335;28;20073;-69
2022/04/23 05:40:01;;;;;;;4.72;4.30;;;;;;;;;;5017840;28;20488;-69
2022/04/23 05:42:27;;;;;;;4.18;3.88;;;;;;;;;;5013939;28;20815;-69
2022/04/23 05:44:53;;;;;;;4.90;4.32;;;;;;;;;;5014749;28;20141;-69
2022/04/23 05:47:19;;;;;;;4.93;4.20;;;;;;;;;;4997627;28;20058;-69
2022/04/23 05:49:45;;;;;;;4.65;4.25;;;;;;;;;;5014004;28;20045;-69
2022/04/23 05:52:11;;;;;;;4.43;3.97;;;;;;;;;;5015084;28;20161;-69
2022/04/23 05:54:37;;;;;;;4.20;3.80;;;;;;;;;;5014094;28;20050;-69
2022/04/23 05:57:03;;;;;;;4.90;4.40;;;;;;;;;;5014725;28;20496;-69
2022/04/23 05:59:30;;;;;;;4.30;3.90;;;;;;;;;;5014484;28;20064;-69
2022/04/23 06:01:56;;;;;;;5.03;4.43;;;;;;;;;;5014224;28;20092;-69
2022/04/23 06:04:29;;;;;;;4.53;4.13;;;;;;;;;;5013357;28;20046;-69
2022/04/23 06:06:55;;;;;;;4.70;4.30;;;;;;;;;;5014708;28;20073;-69
2022/04/23 06:09:21;;;;;;;4.40;4.00;;;;;;;;;;5014478;28;20108;-69
2022/04/23 06:11:47;;;;;;;4.32;3.92;;;;;;;;;;5014225;28;20042;-70
2022/04/23 06:14:13;;;;;;;4.68;4.15;;;;;;;;;;4995953;28;20489;-70
2022/04/23 06:16:39;;;;;;;4.63;4.13;;;;;;;;;;5014359;28;20049;-70
2022/04/23 06:19:05;;;;;;;4.72;3.90;;;;;;;;;;5014219;28;20038;-69
2022/04/23 06:21:32;;;;;;;4.30;3.90;;;;;;;;;;5014472;28;20052;-69
2022/04/23 06:23:58;;;;;;;4.00;3.70;;;;;;;;;;5013530;28;20069;-69
2022/04/23 06:26:24;;;;;;;4.40;3.90;;;;;;;;;;5014234;28;20052;-69
2022/04/23 06:28:51;;;;;;;4.13;3.78;;;;;;;;;;5014424;28;20053;-69
2022/04/23 06:31:17;;;;;;;7.10;3.90;;;;;;;;;;5013311;28;20053;-70
2022/04/23 06:33:43;;;;;;;6.38;4.50;;;;;;;;;;5012981;28;20413;-70
2022/04/23 06:36:13;;;;;;;8.20;4.15;;;;;;;;;;5014093;28;20449;-69
2022/04/23 06:38:39;;;;;;;5.97;3.95;;;;;;;;;;5013858;28;20491;-68
2022/04/23 06:41:05;;;;;;;4.68;4.10;;;;;;;;;;5013892;28;20413;-71
2022/04/23 06:43:31;;;;;;;3.88;3.50;;;;;;;;;;5012834;28;20095;-70
2022/04/23 06:45:59;;;;;;;4.15;3.75;;;;;;;;;;5013007;28;20041;-70
2022/04/23 06:48:25;;;;;;;6.18;4.30;;;;;;;;;;5014174;28;20058;-67
2022/04/23 06:50:51;;;;;;;6.55;3.90;;;;;;;;;;5013746;28;20516;-68
2022/04/23 06:53:18;;;;;;;4.00;3.30;;;;;;;;;;5013031;28;20046;-66
2022/04/23 06:55:44;;;;;;;4.10;3.70;;;;;;;;;;5013499;28;20045;-67
2022/04/23 06:58:11;;;;;;;3.47;3.10;;;;;;;;;;5011846;28;20041;-67
2022/04/23 07:00:41;;;;;;;3.70;3.20;;;;;;;;;;4995158;28;20046;-67
2022/04/23 07:03:07;;;;;;;4.13;3.72;;;;;;;;;;5013517;28;20414;-67
2022/04/23 07:05:33;;;;;;;5.25;3.85;;;;;;;;;;5013592;28;20046;-68
2022/04/23 07:08:01;;;;;;;3.78;3.40;;;;;;;;;;5012896;28;20137;-68
2022/04/23 07:10:27;;;;;;;3.47;3.17;;;;;;;;;;5013398;28;20046;-70
2022/04/23 07:12:53;;;;;;;3.67;3.10;;;;;;;;;;4995385;28;20042;-68
2022/04/23 07:15:20;;;;;;;3.67;3.15;;;;;;;;;;5013790;28;20046;-68
2022/04/23 07:17:47;;;;;;;5.05;3.70;;;;;;;;;;5012883;28;20517;-69
2022/04/23 07:20:13;;;;;;;4.60;3.10;;;;;;;;;;5013581;28;20050;-68
2022/04/23 07:22:39;;;;;;;4.45;3.10;;;;;;;;;;5007522;28;20121;-69
2022/04/23 07:25:08;;;;;;;5.57;3.10;;;;;;;;;;5012930;28;20118;-69
2022/04/23 07:27:34;;;;;;;7.45;3.40;;;;;;;;;;5013218;28;20058;-69
2022/04/23 07:30:00;;;;;;;5.05;3.05;;;;;;;;;;4995645;28;20046;-68
2022/04/23 07:32:26;;;;;;;3.58;3.20;;;;;;;;;;5012719;28;20045;-68
2022/04/23 07:37:37;;;;;;;4.50;3.22;;;;;;;;;;5012123;28;20129;-70
2022/04/23 07:40:12;;;;;;;4.45;3.20;;;;;;;;;;5011408;28;20129;-69
2022/04/23 07:42:38;;;;;;;7.00;3.65;;;;;;;;;;5013130;28;20452;-69
2022/04/23 07:45:04;;;;;;;9.00;4.10;;;;;;;;;;5013170;28;20100;-69
2022/04/23 07:47:31;;;;;;;9.15;3.97;;;;;;;;;;5012900;28;20042;-70
2022/04/23 07:49:59;;;;;;;7.07;3.75;;;;;;;;;;5012311;28;20038;-70
2022/04/23 07:52:25;;;;;;;8.30;3.85;;;;;;;;;;5012818;28;20054;-67
2022/04/23 07:54:51;;;;;;;11.07;3.90;;;;;;;;;;5012488;28;20493;-69
2022/04/23 07:57:21;;;;;;;8.48;3.70;;;;;;;;;;5013176;28;20050;-68
2022/04/23 07:59:47;;;;;;;7.68;3.88;;;;;;;;;;5011239;28;20054;-68
2022/04/23 08:02:13;;;;;;;8.15;3.50;;;;;;;;;;5013786;28;20053;-68
2022/04/23 08:04:39;;;;;;;8.27;3.70;;;;;;;;;;5013454;28;20429;-67
2022/04/23 08:07:06;;;;;;;9.25;3.53;;;;;;;;;;5012679;28;20429;-69
2022/04/23 08:09:37;;;;;;;9.27;4.03;;;;;;;;;;5012316;28;20038;-68
2022/04/23 08:12:06;;;;;;;9.98;3.85;;;;;;;;;;5013638;28;20049;-69
2022/04/23 08:14:32;;;;;;;8.20;3.58;;;;;;;;;;5016586;28;20050;-68
2022/04/23 08:16:59;;;;;;;7.82;4.00;;;;;;;;;;4998624;28;20567;-69
2022/04/23 08:19:25;;;;;;;5.43;3.60;;;;;;;;;;5015882;28;20524;-70
2022/04/23 08:21:51;;;;;;;10.30;3.95;;;;;;;;;;5015747;28;20394;-70
2022/04/23 08:24:19;;;;;;;6.57;3.63;;;;;;;;;;4998656;28;20576;-69
2022/04/23 08:26:45;;;;;;;5.57;3.28;;;;;;;;;;5016215;28;20061;-69
2022/04/23 08:31:55;;;;;;;6.35;3.30;;;;;;;;;;4997941;28;20057;-69
2022/04/23 08:34:22;;;;;;;8.45;3.60;;;;;;;;;;5016252;28;20042;-69
2022/04/23 08:36:49;;;;;;;7.82;3.72;;;;;;;;;;5016253;28;20107;-69
2022/04/23 08:39:16;;;;;;;7.25;3.40;;;;;;;;;;5016016;28;20050;-69
2022/04/23 08:41:45;;;;;;;7.32;3.78;;;;;;;;;;5014907;28;20103;-69
2022/04/23 08:44:10;;;;;;;4.78;3.50;;;;;;;;;;5013916;28;20038;-69
2022/04/23 08:46:38;;;;;;;7.38;3.80;;;;;;;;;;5015691;28;20096;-69
2022/04/23 08:49:08;;;;;;;7.07;3.70;;;;;;;;;;5015726;28;20465;-69
2022/04/23 08:51:35;;;;;;;10.23;3.80;;;;;;;;;;5015411;28;20129;-69
2022/04/23 08:54:06;;;;;;;6.70;4.03;;;;;;;;;;5016648;28;20069;-68
2022/04/23 08:56:32;;;;;;;13.85;5.57;;;;;;;;;;5015477;28;20049;-69
2022/04/23 08:58:59;;;;;;;11.95;5.78;;;;;;;;;;5015732;28;20097;-69
2022/04/23 09:01:26;;;;;;;7.70;5.18;;;;;;;;;;5002344;28;20391;-69
2022/04/23 09:03:52;;;;;;;5.90;4.68;;;;;;;;;;4995945;28;20563;-69
2022/04/23 09:06:18;;;;;;;9.98;5.90;;;;;;;;;;4996115;28;20045;-68
2022/04/23 09:09:03;;;;;;;10.45;5.03;;;;;;;;;;4994964;28;20112;-69
2022/04/23 09:11:35;;;;;;;9.73;5.30;;;;;;;;;;5011190;28;20038;-69
2022/04/23 09:14:05;;;;;;;8.40;4.57;;;;;;;;;;5014991;28;20038;-69
2022/04/23 09:25:03;;;;;;;8.73;4.63;;;;;;;;;;5015031;28;20049;-68
2022/04/23 09:27:31;;;;;;;8.05;4.63;;;;;;;;;;5014746;28;20052;-69
2022/04/23 09:30:08;;;;;;;8.05;4.00;;;;;;;;;;5013023;28;20475;-69
2022/04/23 09:32:34;;;;;;;10.75;4.22;;;;;;;;;;5015156;28;20060;-69
2022/04/23 09:35:19;;;;;;;5.65;4.32;;;;;;;;;;5015144;28;20119;-69
2022/04/23 09:40:29;;;;;;;6.65;3.80;;;;;;;;;;5014240;28;20045;-69
2022/04/23 09:43:02;;;;;;;9.43;4.20;;;;;;;;;;5014431;28;20132;-69
2022/04/23 09:45:29;;;;;;;5.18;4.05;;;;;;;;;;5014752;28;20481;-69
2022/04/23 09:48:15;;;;;;;9.43;4.13;;;;;;;;;;5014756;28;20073;-69
2022/04/23 09:50:41;;;;;;;;;;;;;;;;;;5014884;28;20041;-69
2022/04/23 09:53:11;;;;;;;7.28;4.00;;;;;;;;;;5014987;28;19975;-69
2022/04/23 09:55:37;;;;;;;6.72;3.97;;;;;;;;;;5005551;28;20038;-69
2022/04/23 09:58:07;;;;;;;6.05;3.95;;;;;;;;;;5003577;28;20499;-69
2022/04/23 10:00:37;;;;;;;5.38;3.95;;;;;;;;;;5013846;28;20509;-69
2022/04/23 10:03:06;;;;;;;5.85;3.85;;;;;;;;;;5014443;28;20045;-69
2022/04/23 10:05:34;;;;;;;6.03;3.80;;;;;;;;;;5012989;28;20057;-69
2022/04/23 10:08:00;;;;;;;7.05;3.90;;;;;;;;;;5014735;28;20532;-69
2022/04/23 10:10:30;;;;;;;4.82;3.80;;;;;;;;;;5014095;28;20088;-69
2022/04/23 10:12:58;;;;;;;5.25;3.92;;;;;;;;;;5012378;28;20436;-69
2022/04/23 10:15:25;;;;;;;4.55;3.70;;;;;;;;;;5014484;28;20052;-67
2022/04/23 10:17:51;;;;;;;5.88;3.70;;;;;;;;;;5014555;28;20038;-67
2022/04/23 10:20:17;;;;;;;4.72;3.35;;;;;;;;;;5013708;28;20038;-68
2022/04/23 10:22:57;;;;;;;4.43;3.50;;;;;;;;;;5014462;28;20120;-67
2022/04/23 10:25:42;;;;;;;4.43;3.65;;;;;;;;;;5016351;28;20038;-68
2022/04/23 10:28:08;;;;;;;5.15;3.70;;;;;;;;;;5015873;28;20042;-67
2022/04/23 10:30:34;;;;;;;4.88;3.50;;;;;;;;;;5015683;28;20046;-67
2022/04/23 10:33:20;;;;;;;5.70;3.63;;;;;;;;;;5014342;28;20500;-69
2022/04/23 10:36:01;;;;;;;5.57;3.83;;;;;;;;;;5013816;28;20508;-67
2022/04/23 10:38:27;;;;;;;3.63;3.20;;;;;;;;;;5013957;28;20046;-68
2022/04/23 10:40:55;;;;;;;4.80;3.80;;;;;;;;;;5013140;28;20120;-68
2022/04/23 10:43:21;;;;;;;5.30;3.60;;;;;;;;;;5013607;28;20056;-68
2022/04/23 10:45:48;;;;;;;4.45;3.45;;;;;;;;;;5013968;28;20146;-69
2022/04/23 10:48:23;;;;;;;6.22;3.65;;;;;;;;;;5013943;28;20050;-70
2022/04/23 10:51:18;;;;;;;4.30;3.50;;;;;;;;;;5012882;28;20492;-69
2022/04/23 10:53:46;;;;;;;4.30;3.50;;;;;;;;;;5012324;28;20516;-70
2022/04/23 10:56:16;;;;;;;4.35;3.60;;;;;;;;;;5012296;28;20476;-70
2022/04/23 10:58:42;;;;;;;5.70;3.95;;;;;;;;;;5011213;28;20061;-71
2022/04/23 11:01:21;;;;;;;10.02;4.20;;;;;;;;;;5011180;28;20049;-70
2022/04/23 11:03:59;;;;;;;4.88;3.67;;;;;;;;;;5010371;28;20041;-70
2022/04/23 11:12:27;;;;;;;4.30;3.65;;;;;;;;;;5009233;28;20501;-71
2022/04/23 11:14:55;;;;;;;6.10;3.83;;;;;;;;;;5005407;28;20057;-70
2022/04/23 11:17:47;;;;;;;5.85;3.90;;;;;;;;;;5011725;28;20405;-71
2022/04/23 11:20:13;;;;;;;6.65;3.92;;;;;;;;;;5011167;28;20764;-71
2022/04/23 11:22:39;;;;;;;5.05;3.85;;;;;;;;;;5006448;28;20060;-70
2022/04/23 11:25:06;;;;;;;4.20;3.80;;;;;;;;;;5012382;28;20042;-70
2022/04/23 11:27:36;;;;;;;4.80;3.63;;;;;;;;;;5012851;28;20050;-70
2022/04/23 11:30:03;;;;;;;8.60;4.15;;;;;;;;;;5013364;28;20421;-69
2022/04/23 11:32:30;;;;;;;5.68;3.75;;;;;;;;;;5012473;28;20049;-69
2022/04/23 11:34:59;;;;;;;4.53;3.47;;;;;;;;;;5013059;28;20053;-70
2022/04/23 11:37:35;;;;;;;3.72;3.35;;;;;;;;;;5012914;28;20053;-70
2022/04/23 11:40:11;;;;;;;3.90;3.50;;;;;;;;;;5012529;28;20125;-70
2022/04/23 11:42:41;;;;;;;3.65;3.17;;;;;;;;;;5012918;28;20042;-70
2022/04/23 11:45:08;;;;;;;3.97;3.58;;;;;;;;;;5013474;28;20046;-69
2022/04/23 11:47:34;;;;;;;4.20;3.40;;;;;;;;;;4998259;28;20103;-69
2022/04/23 11:50:17;;;;;;;4.60;3.67;;;;;;;;;;5016429;28;20038;-70
2022/04/23 11:52:56;;;;;;;4.20;3.80;;;;;;;;;;5016980;28;20504;-70
2022/04/23 11:55:23;;;;;;;4.53;3.67;;;;;;;;;;5017312;28;20041;-70
2022/04/23 11:57:59;;;;;;;4.07;3.67;;;;;;;;;;5016905;28;20053;-70
2022/04/23 12:00:26;;;;;;;3.88;3.58;;;;;;;;;;5014921;28;20050;-70
2022/04/23 12:02:52;;;;;;;4.20;3.42;;;;;;;;;;5016863;28;20054;-70
2022/04/23 12:05:23;;;;;;;4.00;3.30;;;;;;;;;;5016262;28;20385;-70
2022/04/23 12:07:49;;;;;;;4.03;3.28;;;;;;;;;;5016664;28;20049;-70
2022/04/23 12:10:15;;;;;;;3.47;3.10;;;;;;;;;;5015795;28;20046;-70
2022/04/23 12:12:42;;;;;;;4.03;3.65;;;;;;;;;;5016549;28;20096;-70
2022/04/23 12:15:11;;;;;;;5.22;3.88;;;;;;;;;;5015322;28;20057;-69
2022/04/23 12:17:45;;;;;;;4.03;3.10;;;;;;;;;;5016517;28;20038;-70
2022/04/23 12:20:12;;;;;;;4.88;3.30;;;;;;;;;;5015866;28;20056;-70
2022/04/23 12:22:38;;;;;;;3.72;3.33;;;;;;;;;;5016384;28;20064;-70
2022/04/23 12:25:18;;;;;;;3.88;3.47;;;;;;;;;;5016180;28;20092;-70
2022/04/23 12:28:03;;;;;;;4.13;3.22;;;;;;;;;;5015120;28;20382;-70
2022/04/23 12:41:47;;;;;;;;;;;;;;;;;;5016386;28;20054;-70
2022/04/23 12:44:17;;;;;;;4.22;3.40;;;;;;;;;;5012461;28;19921;-71
2022/04/23 12:46:59;;;;;;;5.88;3.30;;;;;;;;;;5015885;28;20136;-71
2022/04/23 12:49:44;;;;;;;4.47;3.38;;;;;;;;;;5016011;28;20041;-70
2022/04/23 12:52:15;;;;;;;4.22;3.35;;;;;;;;;;5020570;28;20052;-71
2022/04/23 12:54:41;;;;;;;3.60;3.30;;;;;;;;;;5016206;28;20110;-70
2022/04/23 12:57:14;;;;;;;3.80;3.38;;;;;;;;;;5017555;28;20386;-71
2022/04/23 12:59:40;;;;;;;5.25;3.08;;;;;;;;;;5014069;28;20066;-71
2022/04/23 13:02:06;;;;;;;3.65;3.30;;;;;;;;;;5015277;28;20425;-71
2022/04/23 13:04:32;;;;;;;4.10;3.35;;;;;;;;;;4997708;28;20072;-71
2022/04/23 13:09:43;;;;;;;3.70;3.33;;;;;;;;;;5015355;28;20057;-71
2022/04/23 13:12:09;;;;;;;4.60;3.28;;;;;;;;;;5015772;28;20428;-71
2022/04/23 13:14:35;;;;;;;4.53;3.47;;;;;;;;;;5014501;28;20505;-71
2022/04/23 13:17:01;;;;;;;4.55;3.42;;;;;;;;;;5015618;28;20049;-71
2022/04/23 13:19:27;;;;;;;3.90;3.50;;;;;;;;;;5014257;28;20050;-71
2022/04/23 13:21:53;;;;;;;3.65;3.25;;;;;;;;;;5014892;28;20048;-71
2022/04/23 13:24:19;;;;;;;3.50;3.20;;;;;;;;;;5015436;28;20104;-71
2022/04/23 13:26:45;;;;;;;3.65;3.00;;;;;;;;;;5005582;28;20138;-71
2022/04/23 13:29:11;;;;;;;4.68;3.58;;;;;;;;;;5000323;28;20052;-71
2022/04/23 13:31:39;;;;;;;5.05;3.28;;;;;;;;;;5014884;28;20049;-70
2022/04/23 13:34:05;;;;;;;4.72;3.50;;;;;;;;;;5014995;28;20081;-70
2022/04/23 13:36:31;;;;;;;6.38;3.40;;;;;;;;;;5015001;28;20042;-70
2022/04/23 13:38:57;;;;;;;6.18;3.60;;;;;;;;;;5013877;28;20042;-69
2022/04/23 13:41:23;;;;;;;4.72;3.20;;;;;;;;;;5014664;28;20056;-70
2022/04/23 13:43:49;;;;;;;7.65;3.47;;;;;;;;;;5014820;28;20046;-69
2022/04/23 13:46:16;;;;;;;5.20;3.50;;;;;;;;;;5014720;28;20099;-70
2022/04/23 13:48:43;;;;;;;5.68;4.07;;;;;;;;;;5014926;28;20049;-70
2022/04/23 13:51:09;;;;;;;9.40;3.65;;;;;;;;;;5013771;28;20049;-70
2022/04/23 13:53:35;;;;;;;6.03;3.53;;;;;;;;;;5014667;28;20077;-70
2022/04/23 13:56:02;;;;;;;7.13;3.50;;;;;;;;;;5014386;28;20524;-70
2022/04/23 13:58:28;;;;;;;4.85;3.30;;;;;;;;;;5014638;28;20102;-70
2022/04/23 14:00:54;;;;;;;6.68;3.28;;;;;;;;;;5013274;28;20393;-70
2022/04/23 14:11:34;;;;;;;5.05;3.22;;;;;;;;;;5014306;28;20125;-70
2022/04/23 14:14:01;;;;;;;3.97;3.10;;;;;;;;;;5014436;28;20413;-70
2022/04/23 14:16:27;;;;;;;5.68;3.13;;;;;;;;;;5013592;28;20076;-70
2022/04/23 14:18:53;;;;;;;6.03;3.42;;;;;;;;;;5023370;28;20037;-70
2022/04/23 14:21:19;;;;;;;4.07;3.22;;;;;;;;;;5014156;28;20045;-70
2022/04/23 14:23:45;;;;;;;5.65;3.13;;;;;;;;;;5013906;28;20038;-70
2022/04/23 14:26:11;;;;;;;5.20;3.40;;;;;;;;;;5014212;28;20103;-70
2022/04/23 14:28:37;;;;;;;4.35;3.40;;;;;;;;;;5014289;28;20041;-70
2022/04/23 14:31:03;;;;;;;6.72;3.42;;;;;;;;;;5028468;28;20041;-70
2022/04/23 14:33:29;;;;;;;5.30;3.13;;;;;;;;;;5013748;28;20128;-70
2022/04/23 14:35:55;;;;;;;3.83;3.35;;;;;;;;;;5013801;28;20041;-70
2022/04/23 14:38:21;;;;;;;4.57;3.20;;;;;;;;;;5013416;28;20133;-70
2022/04/23 14:40:47;;;;;;;3.88;3.13;;;;;;;;;;5010474;28;20578;-70
2022/04/23 14:43:14;;;;;;;3.40;3.10;;;;;;;;;;5013895;28;20046;-70
2022/04/23 14:45:41;;;;;;;4.68;3.25;;;;;;;;;;5013566;28;20089;-70
2022/04/23 14:48:08;;;;;;;4.05;3.10;;;;;;;;;;4994957;28;20058;-70
2022/04/23 14:53:21;;;;;;;5.70;3.30;;;;;;;;;;4980637;28;20104;-70
